createdAt,value
2023-05-11T00:04:35.086Z,100864.13
2023-05-11T00:09:38.290Z,100857.03
2023-05-11T00:14:40.217Z,100859.59
2023-05-11T00:19:41.551Z,100857.06
2023-05-11T00:24:42.897Z,100861.25
2023-05-11T00:29:44.210Z,100863.47
2023-05-11T00:34:45.745Z,100860.13
2023-05-11T00:39:47.092Z,100861.28
2023-05-11T00:44:48.777Z,100858.88
2023-05-11T00:49:52.419Z,100859.03
2023-05-11T00:54:53.823Z,100873.09
2023-05-11T00:59:55.478Z,100868.28
2023-05-11T01:04:56.968Z,100873.31
2023-05-11T01:09:58.259Z,100882.06
2023-05-11T01:14:59.690Z,100878.56
2023-05-11T01:20:04.258Z,100880.53
2023-05-11T01:25:24.228Z,100886.38
2023-05-11T01:30:32.057Z,100886.63
2023-05-11T01:35:35.298Z,100888.66
2023-05-11T01:40:39.389Z,100889.22
2023-05-11T01:45:48.524Z,100890.72
2023-05-11T01:50:52.325Z,100879.44
2023-05-11T01:55:55.375Z,100875.16
2023-05-11T02:00:57.402Z,100873.09
2023-05-11T02:05:59.631Z,100865.00
2023-05-11T02:11:02.929Z,100862.50
2023-05-11T02:16:05.393Z,100864.34
2023-05-11T02:21:08.815Z,100859.38
2023-05-11T02:26:11.415Z,100858.38
2023-05-11T02:31:17.608Z,100849.53
2023-05-11T02:36:20.606Z,100829.66
2023-05-11T02:41:26.045Z,100835.13
2023-05-11T02:46:31.907Z,100839.31
2023-05-11T02:51:35.930Z,100856.72
2023-05-11T02:56:38.112Z,100863.09
2023-05-11T03:01:40.226Z,100870.19
2023-05-11T03:06:41.908Z,100883.66
2023-05-11T03:11:44.578Z,100869.00
2023-05-11T03:16:48.147Z,100865.63
2023-05-11T03:21:52.126Z,100871.97
2023-05-11T03:26:57.798Z,100871.84
2023-05-11T03:32:01.138Z,100861.94
2023-05-11T03:37:06.262Z,100863.66
2023-05-11T03:42:08.249Z,100866.56
2023-05-11T03:47:12.355Z,100865.88
2023-05-11T03:52:14.763Z,100869.69
2023-05-11T03:57:16.542Z,100857.88
2023-05-11T04:02:17.939Z,100853.41
2023-05-11T04:07:19.698Z,100858.31
2023-05-11T04:12:21.929Z,100862.03
2023-05-11T04:17:23.498Z,100874.25
2023-05-11T04:22:24.845Z,100868.63
2023-05-11T04:27:26.181Z,100878.38
2023-05-11T04:32:28.251Z,100888.78
2023-05-11T04:37:29.703Z,100886.28
2023-05-11T04:42:32.077Z,100886.47
2023-05-11T04:47:35.608Z,100879.41
2023-05-11T04:52:37.044Z,100875.97
2023-05-11T04:57:38.774Z,100899.34
2023-05-11T05:02:40.972Z,100884.81
2023-05-11T05:07:42.315Z,100891.94
2023-05-11T05:12:43.626Z,100902.16
2023-05-11T05:17:45.106Z,100903.09
2023-05-11T05:22:47.081Z,100905.53
2023-05-11T05:27:48.500Z,100909.06
2023-05-11T05:32:54.814Z,100921.88
2023-05-11T05:37:56.299Z,100931.53
2023-05-11T05:42:57.716Z,100935.09
2023-05-11T05:48:02.934Z,100935.53
2023-05-11T05:53:05.947Z,100940.91
2023-05-11T05:58:07.390Z,100947.44
2023-05-11T06:03:10.535Z,100947.91
2023-05-11T06:08:12.022Z,100950.94
2023-05-11T06:13:14.178Z,100948.75
2023-05-11T06:18:17.710Z,100955.91
2023-05-11T06:23:19.555Z,100953.16
2023-05-11T06:28:24.365Z,100949.75
2023-05-11T06:33:27.561Z,100951.88
2023-05-11T06:38:30.051Z,100947.22
2023-05-11T06:43:31.937Z,100944.34
2023-05-11T06:48:36.507Z,100951.69
2023-05-11T06:53:38.564Z,100959.16
2023-05-11T06:58:39.979Z,100956.94
2023-05-11T07:03:41.461Z,100955.41
2023-05-11T07:08:42.879Z,100953.56
2023-05-11T07:13:45.236Z,100950.44
2023-05-11T07:18:46.739Z,100961.44
2023-05-11T07:23:48.241Z,100963.19
2023-05-11T07:28:49.580Z,100963.41
2023-05-11T07:33:51.078Z,100971.38
2023-05-11T07:38:52.392Z,100971.44
2023-05-11T07:43:54.205Z,100973.53
2023-05-11T07:49:07.248Z,100977.28
2023-05-11T07:54:17.805Z,100973.56
2023-05-11T07:59:20.821Z,100978.53
2023-05-11T08:04:22.171Z,100979.75
2023-05-11T08:09:23.576Z,100984.44
2023-05-11T08:14:25.141Z,100979.75
2023-05-11T08:19:26.672Z,100975.66
2023-05-11T08:24:28.021Z,100977.28
2023-05-11T08:29:29.380Z,100973.09
2023-05-11T08:34:30.941Z,100978.03
2023-05-11T08:39:46.778Z,100985.78
2023-05-11T08:44:49.179Z,100983.28
2023-05-11T08:49:51.810Z,100983.72
2023-05-11T08:54:53.382Z,100986.75
2023-05-11T08:59:54.733Z,100977.44
2023-05-11T09:04:58.442Z,100992.25
2023-05-11T09:10:00.192Z,100986.16
2023-05-11T09:15:02.250Z,100990.75
2023-05-11T09:20:05.534Z,100982.75
2023-05-11T09:25:07.328Z,100980.94
2023-05-11T09:30:22.367Z,100985.44
2023-05-11T09:35:25.835Z,100972.13
2023-05-11T09:40:33.247Z,100979.06
2023-05-11T09:45:36.668Z,100981.97
2023-05-11T09:50:38.052Z,100989.06
2023-05-11T09:55:39.508Z,100984.13
2023-05-11T10:00:48.518Z,100984.69
2023-05-11T10:05:57.317Z,100984.56
2023-05-11T10:10:58.835Z,100971.09
2023-05-11T10:16:03.309Z,100978.94
2023-05-11T10:21:05.093Z,100971.56
2023-05-11T10:26:07.034Z,100973.94
2023-05-11T10:31:09.040Z,100972.84
2023-05-11T10:36:11.345Z,100977.94
2023-05-11T10:41:24.660Z,100968.22
2023-05-11T10:46:44.807Z,100974.56
2023-05-11T10:51:46.191Z,100958.91
2023-05-11T10:56:53.192Z,100964.56
2023-05-11T11:01:58.773Z,100973.41
2023-05-11T11:07:06.492Z,100966.97
2023-05-11T11:12:11.482Z,100968.44
2023-05-11T11:17:22.174Z,100961.84
2023-05-11T11:22:35.833Z,100960.75
2023-05-11T11:27:40.275Z,100964.63
2023-05-11T11:32:42.533Z,100958.72
2023-05-11T11:38:00.230Z,100956.84
2023-05-11T11:43:11.468Z,100960.28
2023-05-11T11:48:14.411Z,100955.19
2023-05-11T11:53:34.858Z,100955.28
2023-05-11T11:58:45.164Z,100948.66
2023-05-11T12:03:47.392Z,100953.06
2023-05-11T12:08:49.046Z,100952.81
2023-05-11T12:13:50.837Z,100957.69
2023-05-11T12:18:53.476Z,100941.06
2023-05-11T12:23:56.049Z,100949.06
2023-05-11T12:29:07.952Z,100941.53
2023-05-11T12:34:19.665Z,100934.09
2023-05-11T12:39:21.035Z,100943.84
2023-05-11T12:44:23.376Z,100927.44
2023-05-11T12:49:26.351Z,100925.59
2023-05-11T12:54:35.266Z,100924.38
2023-05-11T12:59:40.535Z,100922.78
2023-05-11T13:04:42.609Z,100925.28
2023-05-11T13:09:55.427Z,100917.09
2023-05-11T13:15:06.226Z,100919.69
2023-05-11T13:20:27.466Z,100914.69
2023-05-11T13:25:28.886Z,100915.75
2023-05-11T13:30:30.862Z,100915.94
2023-05-11T13:35:37.896Z,100910.44
2023-05-11T13:40:39.283Z,100902.84
2023-05-11T13:45:41.233Z,100901.56
2023-05-11T13:50:42.681Z,100906.69
2023-05-11T13:55:44.262Z,100898.38
2023-05-11T14:00:56.360Z,100898.66
2023-05-11T14:06:05.845Z,100891.66
2023-05-11T14:11:07.267Z,100895.41
2023-05-11T14:16:09.950Z,100887.78
2023-05-11T14:21:11.926Z,100883.69
2023-05-11T14:26:13.391Z,100896.16
2023-05-11T14:31:14.835Z,100885.09
2023-05-11T14:36:16.307Z,100888.03
2023-05-11T14:41:18.835Z,100888.59
2023-05-11T14:46:21.455Z,100884.94
2023-05-11T14:51:22.801Z,100881.63
2023-05-11T14:56:24.270Z,100895.75
2023-05-11T15:01:25.684Z,100883.03
2023-05-11T15:06:27.105Z,100895.84
2023-05-11T15:11:28.400Z,100882.25
2023-05-11T15:16:29.778Z,100888.88
2023-05-11T15:21:31.974Z,100882.84
2023-05-11T15:26:33.313Z,100885.28
2023-05-11T15:31:34.766Z,100894.66
2023-05-11T15:36:36.220Z,100888.31
2023-05-11T15:41:37.794Z,100884.59
2023-05-11T15:46:39.214Z,100894.31
2023-05-11T15:51:40.552Z,100889.78
2023-05-11T15:56:41.883Z,100904.91
2023-05-11T16:01:43.289Z,100899.00
2023-05-11T16:06:44.714Z,100903.63
2023-05-11T16:11:46.180Z,100898.47
2023-05-11T16:16:47.595Z,100908.63
2023-05-11T16:21:49.000Z,100900.25
2023-05-11T16:26:50.735Z,100895.72
2023-05-11T16:31:52.669Z,100886.31
2023-05-11T16:36:54.501Z,100889.69
2023-05-11T16:41:56.702Z,100889.53
2023-05-11T16:46:58.386Z,100894.66
2023-05-11T16:52:00.653Z,100891.88
2023-05-11T16:57:02.104Z,100898.84
2023-05-11T17:02:03.679Z,100902.88
2023-05-11T17:07:05.241Z,100904.66
2023-05-11T17:12:10.350Z,100898.25
2023-05-11T17:17:11.694Z,100907.38
2023-05-11T17:22:13.133Z,100909.91
2023-05-11T17:27:14.475Z,100909.47
2023-05-11T17:32:16.001Z,100915.88
2023-05-11T17:37:27.852Z,100910.94
2023-05-11T17:42:34.119Z,100916.38
2023-05-11T17:47:35.529Z,100907.94
2023-05-11T17:52:36.855Z,100919.28
2023-05-11T17:57:38.229Z,100918.59
2023-05-11T18:02:39.803Z,100905.38
2023-05-11T18:07:41.674Z,100912.59
2023-05-11T18:12:43.050Z,100918.84
2023-05-11T18:17:44.583Z,100914.97
2023-05-11T18:22:45.964Z,100921.19
2023-05-11T18:27:47.260Z,100929.44
2023-05-11T18:32:48.592Z,100927.00
2023-05-11T18:37:50.112Z,100929.13
2023-05-11T18:42:54.293Z,100928.00
2023-05-11T18:47:56.086Z,100940.47
2023-05-11T18:52:57.549Z,100940.88
2023-05-11T18:57:59.319Z,100938.94
2023-05-11T19:03:01.248Z,100945.03
2023-05-11T19:08:02.678Z,100948.94
2023-05-11T19:13:04.267Z,100960.22
2023-05-11T19:18:05.765Z,100963.34
2023-05-11T19:23:07.133Z,100963.28
2023-05-11T19:28:08.476Z,100966.47
2023-05-11T19:33:09.946Z,100971.84
2023-05-11T19:38:11.349Z,100974.03
2023-05-11T19:43:12.805Z,100979.25
2023-05-11T19:48:14.261Z,100982.75
2023-05-11T19:53:15.612Z,100979.16
2023-05-11T19:58:17.341Z,100987.81
2023-05-11T20:03:18.774Z,100979.66
2023-05-11T20:08:20.387Z,100987.41
2023-05-11T20:13:21.933Z,100995.47
2023-05-11T20:18:23.392Z,100993.75
2023-05-11T20:23:24.870Z,101003.66
2023-05-11T20:28:27.844Z,100998.28
2023-05-11T20:38:33.449Z,100999.41
2023-05-11T20:43:34.765Z,100985.72
2023-05-11T20:48:40.068Z,100987.94
2023-05-11T20:53:43.999Z,100983.00
2023-05-11T20:58:47.313Z,100977.84
2023-05-11T21:03:48.669Z,100973.56
2023-05-11T21:08:50.928Z,100975.88
2023-05-11T21:13:52.304Z,100973.69
2023-05-11T21:18:53.909Z,100971.44
2023-05-11T21:23:55.238Z,100967.38
2023-05-11T21:28:56.961Z,100972.25
2023-05-11T21:33:58.310Z,100969.31
2023-05-11T21:38:59.687Z,100971.19
2023-05-11T21:44:01.377Z,100975.25
2023-05-11T21:49:03.034Z,100972.28
2023-05-11T21:54:04.469Z,100969.34
2023-05-11T21:59:05.843Z,100961.44
2023-05-11T22:04:07.391Z,100964.78
2023-05-11T22:09:08.891Z,100965.78
2023-05-11T22:14:10.538Z,100961.72
2023-05-11T22:19:13.185Z,100963.03
2023-05-11T22:24:14.630Z,100959.03
2023-05-11T22:29:16.242Z,100960.97
2023-05-11T22:34:19.055Z,100959.00
2023-05-11T22:39:20.982Z,100958.81
2023-05-11T22:44:22.343Z,100955.91
2023-05-11T22:49:23.652Z,100957.56
2023-05-11T22:54:26.085Z,100948.94
2023-05-11T22:59:27.444Z,100953.81
2023-05-11T23:04:29.233Z,100951.31
2023-05-11T23:09:30.591Z,100939.84
2023-05-11T23:14:32.119Z,100937.16
2023-05-11T23:19:33.576Z,100938.75
2023-05-11T23:24:35.115Z,100931.66
2023-05-11T23:29:37.022Z,100930.44
2023-05-11T23:34:54.221Z,100929.16
2023-05-11T23:39:55.557Z,100923.19
2023-05-11T23:44:57.203Z,100916.00
2023-05-11T23:49:58.516Z,100911.16
2023-05-11T23:55:01.001Z,100900.94
